EICKLFBH

Guest
Details From EICK - Cork
To LFBH - La Rochelle Laleu
Flight Number -
Tags Generated
Created
Modified
Stats Distance 446 nm / 826 km
Max Altitude 0 ft / 0 m
Waypoints 4
Social Downloads 2
Likes 0
Share VATSIM

Download

Looking for another format? Having issues loading an existing format? Contact us
Advertisement - Login to hide

Notes

Generated

Route

EICK GANTO LUSON LFBH

ID Type Via Altitude Latitude Longitude Leg Dist Tot Dist Heading (true) Name
O EICK APT - 0 ft / 0 m 51.84143˚ -8.49570˚ - 0 nm - -
GANTO FIX - 0 ft / 0 m 49.39722˚ -4.98111˚ 198 nm 198 nm 136° / 139° -
LUSON FIX - 0 ft / 0 m 46.50000˚ -1.35083˚ 227 nm 425 nm 139° / 141° -
O LFBH APT - 0 ft / 0 m 46.17968˚ -1.21101˚ 20 nm 445 nm 163° / 163° -

Altitude Profile

Advertisement - Login to hide

Weather


0- 5 10 15 20 25 30 35+ Temperature / ° C

Clouds and Precipitation
Forecast for 2018-05-27 12:00 UTC. Updated 3 hours ago

Ground ~20,000 ft ~40,000 ft Winds

EICK

Details ICAO EICK (ORK)
Name Cork
Region Ireland
Timezone Europe/Dublin (UTC+1.0)
Stats Elevation 502 ft / 153 m (AMSL)
Location 51.842605° -8.489056°
Runways 2
Magnetic Variation 3.539° W

METAR

EICK 271430Z 08012KT 3500 BR BKN004 BKN005 14/13 Q1014 NOSIG

Decode

TAF

TAF AMD EICK 270926Z 2709/2806 07011KT 9999 BKN012 TEMPO 2709/2711 3000 -RA BR BKN007 TEMPO 2711/2718 4000 BR BKN007 BECMG 2718/2721 VRB03KT 3000 BR BKN003 PROB40 TEMPO 2722/2806 0500 FG BKN001

Decode

Departure Runways

ID Width Length Bearing (true) Bearing (mag) Surface Threshold Offset Overrun Length
07 148 ft / 45 m 4,281 ft / 1,305 m 62.55° 66.09° Concrete 0 ft / 0 m 0 ft / 0 m
17 148 ft / 45 m 6,992 ft / 2,131 m 159.93° 163.47° Asphalt 0 ft / 0 m 115 ft / 35 m
25 148 ft / 45 m 4,281 ft / 1,305 m 242.57° 246.11° Concrete 0 ft / 0 m 39 ft / 12 m
35 148 ft / 45 m 6,992 ft / 2,131 m 339.94° 343.48° Asphalt 0 ft / 0 m 0 ft / 0 m

LFBH

Details ICAO LFBH (LRH)
Name La Rochelle Laleu
Region France
Timezone Europe/Paris (UTC+2.0)
Stats Elevation 74 ft / 23 m (AMSL)
Location 46.179245° -1.196410°
Runways 1
Magnetic Variation 0.243° W

METAR

LFBH 271430Z AUTO 25006KT 190V320 CAVOK 22/14 Q1015 NOSIG

Decode

TAF

TAF LFBH 271100Z 2712/2812 24008KT 9999 SCT025 BECMG 2714/2716 30010KT TEMPO 2800/2812 4000 SHRA BKN010 BKN050TCU

Decode

Destination Runways

ID Width Length Bearing (true) Bearing (mag) Surface Threshold Offset Overrun Length
10 148 ft / 45 m 7,383 ft / 2,250 m 92.43° 92.67° Asphalt 1,033 ft / 315 m 0 ft / 0 m
28 148 ft / 45 m 7,383 ft / 2,250 m 272.45° 272.69° Asphalt 1,532 ft / 467 m 0 ft / 0 m

Approach Navaids

Runway Type Ident Frequency Range Bearing (true) Bearing (mag) Slope Elevation
28 Localiser RL 109.55 MHz 18 nm / 33 km 272.43° 272.67° - 72 ft / 22 m (AMSL)
28 Glidescope RL 109.55 MHz 10 nm / 19 km 272.44° 272.68° 3.10° 108 ft / 33 m (AMSL)
28 DME RL 109.55 MHz 18 nm / 33 km - - - 66 ft / 20 m (AMSL)

Popular Alternatives